Kezdőlap
METAR-TAF:

METAR-TAF

Repülőterek :

Nouakchott, Mauritánia

földrajzi szélesség: 18-18-36N, földrajzi hosszúság: 015-58-11W, magasság: 3 m

Jelenlegi meteorológiai megfigyelések

A jelentés 33 perccel ezelõtt készült, 00:30 UTC
Északi szél 15 kt
Hőmérséklet 21°C
Páratartalom 69%
Légköri nyomás 1014 hPa
Látótávolság: 8000 m

METAR: GQNO 240030Z 35015KT 8000 NSC 21/15 Q1014 NOSIG

Idő: 01:03 (01:03 UTC)

Előrejelzés

A jelentés 2 órával és 3 perccel ezelõtt készült, 23:00 UTC
Az előrejelzés 24-én 00 óra UTC és 25-én 06 óra UTC között érvényes
Észak-északnyugati szél 13 kt
Látótávolság: 7000 m

TAF: GQNO 232300Z 2400/2506 34013KT 7000 NSC

Meteorológiai megfigyelések és előrejelzések több, mint 4000 repülőtéren (METAR és TAF jelentéseket).

A térképen piros és sárga pontok jelzik az elérhető meteorológiai állomásokat.

Mozgassa az egeret a pont fölött, hogy megjelenjen az állomás neve.

Azután kattintson az időjárási megfigyelések és előrejelzések megtekintéséhez.

A térkép megváltoztatása: kattintson a fekete keresztel jelölt zöld gombra ráközelítéshez, a vonallal jelölt zöld gombra távolításhoz, vagy a zöld nyilakra a szomszédos térképek eléréséhez.


METAR-TAF: